
Tropical Cyclone Data Analysis Scientist
| Date Time MST |
Temp °F |
RH % |
DewPt °F |
Wind mph |
Dir ° |
Gust mph |
Dir ° |
Press in Hg |
Solar W/m^2 |
Prec in |
|---|---|---|---|---|---|---|---|---|---|---|
| 2026-05-02 14:45 | 71.1 | 10.0 | 11.8 | 5.7 | 98 | 10.1 | 95 | 24.882 | 685.2 | 0.00 |
| 2026-05-02 14:40 | 70.4 | 9.7 | 10.6 | 9.0 | 115 | 18.1 | 86 | 24.885 | 696.6 | 0.00 |
| 2026-05-02 14:35 | 70.7 | 10.1 | 11.7 | 9.1 | 83 | 13.8 | 93 | 24.887 | 709.0 | 0.00 |
| 2026-05-02 14:30 | 71.3 | 10.3 | 12.6 | 6.5 | 98 | 11.3 | 81 | 24.878 | 719.4 | 0.00 |
| 2026-05-02 14:25 | 70.4 | 10.3 | 11.9 | 7.3 | 168 | 12.8 | 137 | 24.884 | 729.1 | 0.00 |
| 2026-05-02 14:20 | 70.7 | 10.5 | 12.5 | 7.1 | 140 | 11.4 | 120 | 24.894 | 737.2 | 0.00 |
| 2026-05-02 14:15 | 70.8 | 10.5 | 12.7 | 6.3 | 125 | 11.9 | 90 | 24.901 | 749.4 | 0.00 |
| 2026-05-02 14:10 | 69.9 | 10.9 | 12.8 | 2.8 | 50 | 5.9 | 164 | 24.910 | 763.0 | 0.00 |
| 2026-05-02 14:05 | 69.6 | 10.8 | 12.4 | 8.7 | 137 | 13.4 | 126 | 24.911 | 772.2 | 0.00 |
| 2026-05-02 14:00 | 69.7 | 10.7 | 12.2 | 8.1 | 132 | 14.5 | 146 | 24.914 | 778.6 | 0.00 |
| 2026-05-02 13:55 | 69.6 | 11.6 | 14.0 | 9.9 | 128 | 13.5 | 127 | 24.904 | 787.9 | 0.00 |
| 2026-05-02 13:50 | 69.6 | 11.3 | 13.4 | 4.7 | 125 | 12.1 | 126 | 24.906 | 800.0 | 0.00 |
| 2026-05-02 13:45 | 69.6 | 11.7 | 14.2 | 7.3 | 132 | 10.6 | 124 | 24.913 | 809.0 | 0.00 |
| 2026-05-02 13:40 | 69.4 | 11.5 | 13.7 | 8.2 | 110 | 11.2 | 137 | 24.910 | 817.0 | 0.00 |
| 2026-05-02 13:35 | 69.8 | 12.0 | 14.9 | 9.0 | 138 | 13.9 | 146 | 24.912 | 824.0 | 0.00 |
| 2026-05-02 13:30 | 69.6 | 12.0 | 14.8 | 8.8 | 89 | 14.7 | 93 | 24.921 | 828.0 | 0.00 |
| 2026-05-02 13:25 | 69.4 | 12.5 | 15.5 | 9.0 | 113 | 12.9 | 111 | 24.922 | 835.0 | 0.00 |
| 2026-05-02 13:20 | 69.1 | 12.0 | 14.4 | 5.6 | 93 | 11.9 | 102 | 24.927 | 842.0 | 0.00 |
| 2026-05-02 13:15 | 69.4 | 11.9 | 14.4 | 6.5 | 348 | 13.5 | 123 | 24.932 | 848.0 | 0.00 |
| 2026-05-02 13:10 | 69.5 | 12.4 | 15.4 | 6.5 | 137 | 11.8 | 118 | 24.932 | 853.0 | 0.00 |
| 2026-05-02 13:05 | 68.3 | 12.6 | 14.8 | 5.0 | 38 | 8.4 | 87 | 24.931 | 860.0 | 0.00 |
| 2026-05-02 13:00 | 67.7 | 12.2 | 13.6 | 6.0 | 107 | 12.1 | 169 | 24.932 | 865.0 | 0.00 |
| 2026-05-02 12:55 | 68.1 | 12.1 | 13.8 | 6.6 | 175 | 9.8 | 140 | 24.933 | 868.0 | 0.00 |
| 2026-05-02 12:50 | 68.9 | 12.2 | 14.6 | 9.8 | 134 | 14.6 | 159 | 24.935 | 872.0 | 0.00 |
| 2026-05-02 12:45 | 68.9 | 12.9 | 15.9 | 6.5 | 95 | 11.1 | 80 | 24.933 | 876.0 | 0.00 |
| 2026-05-02 12:40 | 68.3 | 12.6 | 14.9 | 8.6 | 110 | 12.9 | 68 | 24.935 | 880.0 | 0.00 |
| 2026-05-02 12:35 | 68.9 | 12.2 | 14.7 | 6.4 | 63 | 13.4 | 59 | 24.935 | 882.0 | 0.00 |
| 2026-05-02 12:30 | 68.9 | 13.0 | 16.1 | 7.9 | 97 | 13.3 | 118 | 24.933 | 883.0 | 0.00 |
| 2026-05-02 12:25 | 67.4 | 13.3 | 15.3 | 6.7 | 158 | 12.3 | 98 | 24.934 | 886.0 | 0.00 |
| 2026-05-02 12:20 | 67.1 | 12.7 | 14.0 | 8.3 | 66 | 11.6 | 83 | 24.939 | 887.0 | 0.00 |
| Date Time MST |
Temp °C |
RH % |
DewPt °C |
Wind m/s |
Dir ° |
Gust m/s |
Dir ° |
Press hPa |
Solar W/m^2 |
Prec mm |
|---|---|---|---|---|---|---|---|---|---|---|
| 2026-05-02 14:45 | 21.7 | 10.0 | -11.2 | 2.6 | 98 | 4.5 | 95 | 842.60 | 685.2 | 0.00 |
| 2026-05-02 14:40 | 21.3 | 9.7 | -11.9 | 4.0 | 115 | 8.1 | 86 | 842.70 | 696.6 | 0.00 |
| 2026-05-02 14:35 | 21.5 | 10.1 | -11.3 | 4.1 | 83 | 6.2 | 93 | 842.78 | 709.0 | 0.00 |
| 2026-05-02 14:30 | 21.8 | 10.3 | -10.8 | 2.9 | 98 | 5.1 | 81 | 842.45 | 719.4 | 0.00 |
| 2026-05-02 14:25 | 21.4 | 10.3 | -11.2 | 3.3 | 168 | 5.7 | 137 | 842.65 | 729.1 | 0.00 |
| 2026-05-02 14:20 | 21.5 | 10.5 | -10.8 | 3.2 | 140 | 5.1 | 120 | 843.00 | 737.2 | 0.00 |
| 2026-05-02 14:15 | 21.6 | 10.5 | -10.7 | 2.8 | 125 | 5.3 | 90 | 843.24 | 749.4 | 0.00 |
| 2026-05-02 14:10 | 21.0 | 10.9 | -10.7 | 1.3 | 50 | 2.6 | 164 | 843.54 | 763.0 | 0.00 |
| 2026-05-02 14:05 | 20.9 | 10.8 | -10.9 | 3.9 | 137 | 6.0 | 126 | 843.57 | 772.2 | 0.00 |
| 2026-05-02 14:00 | 20.9 | 10.7 | -11.0 | 3.6 | 132 | 6.5 | 146 | 843.67 | 778.6 | 0.00 |
| 2026-05-02 13:55 | 20.9 | 11.6 | -10.0 | 4.4 | 128 | 6.0 | 127 | 843.34 | 787.9 | 0.00 |
| 2026-05-02 13:50 | 20.9 | 11.3 | -10.3 | 2.1 | 125 | 5.4 | 126 | 843.40 | 800.0 | 0.00 |
| 2026-05-02 13:45 | 20.9 | 11.7 | -9.9 | 3.3 | 132 | 4.7 | 124 | 843.64 | 809.0 | 0.00 |
| 2026-05-02 13:40 | 20.8 | 11.5 | -10.2 | 3.7 | 110 | 5.0 | 137 | 843.55 | 817.0 | 0.00 |
| 2026-05-02 13:35 | 21.0 | 12.0 | -9.5 | 4.0 | 138 | 6.2 | 146 | 843.60 | 824.0 | 0.00 |
| 2026-05-02 13:30 | 20.9 | 12.0 | -9.6 | 3.9 | 89 | 6.6 | 93 | 843.91 | 828.0 | 0.00 |
| 2026-05-02 13:25 | 20.8 | 12.5 | -9.1 | 4.0 | 113 | 5.8 | 111 | 843.97 | 835.0 | 0.00 |
| 2026-05-02 13:20 | 20.6 | 12.0 | -9.8 | 2.5 | 93 | 5.3 | 102 | 844.13 | 842.0 | 0.00 |
| 2026-05-02 13:15 | 20.8 | 11.9 | -9.8 | 2.9 | 348 | 6.1 | 123 | 844.28 | 848.0 | 0.00 |
| 2026-05-02 13:10 | 20.8 | 12.4 | -9.2 | 2.9 | 137 | 5.3 | 118 | 844.30 | 853.0 | 0.00 |
| 2026-05-02 13:05 | 20.2 | 12.6 | -9.5 | 2.2 | 38 | 3.8 | 87 | 844.25 | 860.0 | 0.00 |
| 2026-05-02 13:00 | 19.8 | 12.2 | -10.2 | 2.7 | 107 | 5.4 | 169 | 844.29 | 865.0 | 0.00 |
| 2026-05-02 12:55 | 20.1 | 12.1 | -10.1 | 3.0 | 175 | 4.4 | 140 | 844.33 | 868.0 | 0.00 |
| 2026-05-02 12:50 | 20.5 | 12.2 | -9.7 | 4.4 | 134 | 6.5 | 159 | 844.41 | 872.0 | 0.00 |
| 2026-05-02 12:45 | 20.5 | 12.9 | -8.9 | 2.9 | 95 | 5.0 | 80 | 844.34 | 876.0 | 0.00 |
| 2026-05-02 12:40 | 20.2 | 12.6 | -9.5 | 3.8 | 110 | 5.8 | 68 | 844.40 | 880.0 | 0.00 |
| 2026-05-02 12:35 | 20.5 | 12.2 | -9.6 | 2.9 | 63 | 6.0 | 59 | 844.41 | 882.0 | 0.00 |
| 2026-05-02 12:30 | 20.5 | 13.0 | -8.8 | 3.5 | 97 | 5.9 | 118 | 844.34 | 883.0 | 0.00 |
| 2026-05-02 12:25 | 19.6 | 13.3 | -9.3 | 3.0 | 158 | 5.5 | 98 | 844.38 | 886.0 | 0.00 |
| 2026-05-02 12:20 | 19.5 | 12.7 | -10.0 | 3.7 | 66 | 5.2 | 83 | 844.53 | 887.0 | 0.00 |

Tropical Cyclone Data Analysis Scientist
Cooperative Institute for Research in the Atmosphere
Colorado State University
1375 Campus Delivery
Fort Collins, CO 80523-1375